Time;durP1;ratioP1;P1;durP2;ratioP2;P2;SDS_P1;SDS_P2;PMS_P1;PMS_P2;Temp;Humidity;BMP_temperature;BMP_pressure;BME280_temperature;BME280_humidity;BME280_pressure;Samples;Min_cycle;Max_cycle;Signal;HPM_P1;HPM_P2
2023/03/31 00:00:56;;;;;;;15.70;4.23;;;;;;;-145.18;100.00;60484.78;5012825;28;20060;-61
2023/03/31 00:03:23;;;;;;;14.33;3.40;;;;;;;-145.18;100.00;60484.78;5009087;28;20034;-61
2023/03/31 00:05:53;;;;;;;9.97;2.63;;;;;;;-145.18;100.00;60484.78;5013056;28;20029;-61
2023/03/31 00:08:20;;;;;;;12.97;3.47;;;;;;;-145.18;100.00;60484.78;5013056;28;20389;-61
2023/03/31 00:10:46;;;;;;;14.70;4.40;;;;;;;-145.18;100.00;60484.78;5012966;28;20034;-61
2023/03/31 00:13:12;;;;;;;13.27;3.60;;;;;;;-145.18;100.00;60484.78;5012848;28;20057;-61
2023/03/31 00:15:38;;;;;;;16.07;3.77;;;;;;;-145.18;100.00;60484.78;5013111;28;20508;-61
2023/03/31 00:18:04;;;;;;;13.20;3.10;;;;;;;-145.18;100.00;60484.78;5012851;28;20486;-62
2023/03/31 00:20:32;;;;;;;15.07;4.20;;;;;;;-145.18;100.00;60484.78;5012812;28;20053;-61
2023/03/31 00:23:00;;;;;;;17.43;3.43;;;;;;;-145.18;100.00;60484.78;5012584;28;20501;-61
2023/03/31 00:25:26;;;;;;;15.30;3.73;;;;;;;-145.18;100.00;60484.78;5012563;28;20474;-61
2023/03/31 00:27:52;;;;;;;13.77;3.87;;;;;;;-145.18;100.00;60484.78;5012445;28;20026;-61
2023/03/31 00:30:19;;;;;;;13.20;3.60;;;;;;;-145.18;100.00;60484.78;5012485;28;20037;-61
2023/03/31 00:32:45;;;;;;;13.37;3.90;;;;;;;-145.18;100.00;60484.78;5012651;28;20069;-61
2023/03/31 00:35:11;;;;;;;12.67;2.97;;;;;;;-145.18;100.00;60484.78;5012363;28;20064;-62
2023/03/31 00:37:36;;;;;;;15.37;3.17;;;;;;;-145.18;100.00;60484.78;5012615;28;20034;-62
2023/03/31 00:40:08;;;;;;;12.73;3.03;;;;;;;-145.18;100.00;60484.78;5012358;28;20045;-62
2023/03/31 00:42:42;;;;;;;16.50;3.83;;;;;;;-145.18;100.00;60484.78;5012159;28;20026;-61
2023/03/31 00:45:33;;;;;;;14.47;3.33;;;;;;;-145.18;100.00;60484.78;5006872;28;20052;-61
2023/03/31 00:48:13;;;;;;;15.15;3.15;;;;;;;-145.18;100.00;60484.78;4995511;28;20057;-61
2023/03/31 00:50:59;;;;;;;13.07;3.50;;;;;;;-145.18;100.00;60484.78;5012251;28;20041;-61
2023/03/31 00:53:29;;;;;;;14.13;3.30;;;;;;;-145.18;100.00;60484.78;5012221;28;20036;-61
2023/03/31 00:56:00;;;;;;;15.03;3.70;;;;;;;-145.18;100.00;60484.78;4996343;28;20026;-61
2023/03/31 00:58:28;;;;;;;;;;;;;;;-145.18;100.00;60484.78;5012334;28;20029;-61
2023/03/31 01:04:21;;;;;;;14.23;3.00;;;;;;;-145.18;100.00;60484.78;5034860;22;20515;-88
2023/03/31 01:06:56;;;;;;;12.27;3.20;;;;;;;-145.18;100.00;60484.78;5034065;28;20017;-89
2023/03/31 01:09:23;;;;;;;15.13;3.33;;;;;;;-145.18;100.00;60484.78;5041963;28;20276;-89
2023/03/31 01:11:49;;;;;;;12.73;2.97;;;;;;;-145.18;100.00;60484.78;5035654;28;20032;-89
2023/03/31 01:14:15;;;;;;;13.40;3.23;;;;;;;-145.18;100.00;60484.78;5045072;28;20385;-89
2023/03/31 01:16:40;;;;;;;13.80;2.90;;;;;;;-145.18;100.00;60484.78;5054139;28;20049;-89
2023/03/31 01:19:18;;;;;;;15.30;3.73;;;;;;;-145.18;100.00;60484.78;5053095;28;20086;-90
2023/03/31 01:22:48;;;;;;;11.37;2.80;;;;;;;-145.18;100.00;60484.78;5053902;28;20037;-89
2023/03/31 01:26:00;;;;;;;11.87;3.10;;;;;;;-145.18;100.00;60484.78;4961093;28;20390;-89
2023/03/31 01:29:07;;;;;;;13.38;2.80;;;;;;;-145.18;100.00;60484.78;4934444;28;20127;-89
2023/03/31 01:32:10;;;;;;;13.83;2.47;;;;;;;-145.18;100.00;60484.78;4933831;29;20039;-90
2023/03/31 01:35:19;;;;;;;12.13;2.93;;;;;;;-145.18;100.00;60484.78;4934335;29;20043;-89
2023/03/31 01:38:23;;;;;;;14.20;3.10;;;;;;;-145.18;100.00;60484.78;4934487;29;20494;-90
2023/03/31 01:41:17;;;;;;;12.63;3.23;;;;;;;-145.18;100.00;60484.78;4877103;29;20123;-90
2023/03/31 01:43:55;;;;;;;12.73;2.83;;;;;;;-145.18;100.00;60484.78;4861853;29;20044;-90
2023/03/31 01:46:27;;;;;;;13.57;2.80;;;;;;;-145.18;100.00;60484.78;4877748;29;20037;-89
2023/03/31 01:49:46;;;;;;;15.20;2.73;;;;;;;-145.18;100.00;60484.78;4877999;29;20056;-89
2023/03/31 01:52:37;;;;;;;18.73;3.63;;;;;;;-145.18;100.00;60484.78;4832616;29;20053;-89
2023/03/31 01:55:32;;;;;;;13.43;3.93;;;;;;;-145.18;100.00;60484.78;4828733;29;20077;-89
2023/03/31 01:58:35;;;;;;;11.90;3.20;;;;;;;-145.18;100.00;60484.78;4865624;29;20056;-89
2023/03/31 02:01:09;;;;;;;11.33;2.50;;;;;;;-145.18;100.00;60484.78;4871382;29;20138;-89
2023/03/31 02:03:45;;;;;;;16.30;3.00;;;;;;;-145.18;100.00;60484.78;4898164;29;20063;-89
2023/03/31 02:06:23;;;;;;;11.40;2.50;;;;;;;-145.18;100.00;60484.78;4933662;29;20047;-89
2023/03/31 02:08:53;;;;;;;8.07;2.50;;;;;;;-145.18;100.00;60484.78;4934132;29;20119;-89
2023/03/31 02:11:20;;;;;;;9.67;2.00;;;;;;;-145.18;100.00;60484.78;4934101;29;20615;-90
2023/03/31 02:13:49;;;;;;;13.83;2.50;;;;;;;-145.18;100.00;60484.78;4937919;29;20051;-89
2023/03/31 02:16:23;;;;;;;11.23;2.90;;;;;;;-145.18;100.00;60484.78;4961134;28;20046;-88
2023/03/31 02:18:52;;;;;;;13.87;2.50;;;;;;;-145.18;100.00;60484.78;4959478;28;20482;-90
2023/03/31 02:21:19;;;;;;;9.07;2.50;;;;;;;-145.18;100.00;60484.78;4969828;28;20117;-89
2023/03/31 02:23:47;;;;;;;11.40;2.60;;;;;;;-145.18;100.00;60484.78;5014306;28;20517;-89
2023/03/31 02:26:19;;;;;;;14.10;2.50;;;;;;;-145.18;100.00;60484.78;5038160;28;20033;-89
2023/03/31 02:28:44;;;;;;;12.95;2.83;;;;;;;-145.18;100.00;60484.78;5057061;28;20079;-89
2023/03/31 02:31:56;;;;;;;15.43;2.93;;;;;;;-145.18;100.00;60484.78;5056813;28;20037;-90
2023/03/31 02:34:22;;;;;;;10.75;2.55;;;;;;;-145.18;100.00;60484.78;5001837;28;20438;-89
2023/03/31 02:36:49;;;;;;;11.43;2.43;;;;;;;-145.18;100.00;60484.78;5056805;28;20167;-88
2023/03/31 02:39:19;;;;;;;12.93;3.10;;;;;;;-145.18;100.00;60484.78;5048809;28;20044;-89
2023/03/31 02:41:44;;;;;;;10.33;2.20;;;;;;;-145.18;100.00;60484.78;5053483;28;20082;-89
2023/03/31 02:44:10;;;;;;;8.67;3.03;;;;;;;-145.18;100.00;60484.78;5056385;28;20028;-88
2023/03/31 02:46:36;;;;;;;8.30;2.27;;;;;;;-145.18;100.00;60484.78;5056083;28;20036;-89
2023/03/31 02:49:06;;;;;;;12.50;2.80;;;;;;;-145.18;100.00;60484.78;5056163;28;20029;-89
2023/03/31 02:52:13;;;;;;;12.47;2.53;;;;;;;-145.18;100.00;60484.78;5054917;28;20108;-88
2023/03/31 02:55:09;;;;;;;13.47;3.00;;;;;;;-145.18;100.00;60484.78;5047203;28;20056;-87
2023/03/31 02:58:11;;;;;;;14.53;3.23;;;;;;;-145.18;100.00;60484.78;5054467;28;20040;-87
2023/03/31 03:01:26;;;;;;;9.60;2.60;;;;;;;-145.18;100.00;60484.78;5055997;28;20082;-89
2023/03/31 03:04:17;;;;;;;9.80;2.90;;;;;;;-145.18;100.00;60484.78;4979489;28;20121;-89
2023/03/31 03:06:59;;;;;;;13.27;3.08;;;;;;;-145.18;100.00;60484.78;4994248;28;20038;-88
2023/03/31 03:09:53;;;;;;;12.43;3.03;;;;;;;-145.18;100.00;60484.78;4990127;28;20061;-89
2023/03/31 03:12:57;;;;;;;12.80;3.50;;;;;;;-145.18;100.00;60484.78;4993304;28;20038;-89
2023/03/31 03:15:36;;;;;;;11.57;3.80;;;;;;;-145.18;100.00;60484.78;4956170;28;20186;-89
2023/03/31 03:18:04;;;;;;;12.23;3.20;;;;;;;-145.18;100.00;60484.78;4955160;29;20051;-89
2023/03/31 03:20:32;;;;;;;12.20;3.30;;;;;;;-145.18;100.00;60484.78;4954263;28;20047;-89
2023/03/31 03:22:58;;;;;;;15.43;4.00;;;;;;;-145.18;100.00;60484.78;4954751;28;20151;-86
2023/03/31 03:25:24;;;;;;;16.00;3.93;;;;;;;-145.18;100.00;60484.78;4938958;28;20040;-88
2023/03/31 03:27:51;;;;;;;18.07;4.10;;;;;;;-145.18;100.00;60484.78;4954993;29;20055;-88
2023/03/31 03:30:17;;;;;;;17.80;4.50;;;;;;;-145.18;100.00;60484.78;4955397;28;20249;-88
2023/03/31 03:32:43;;;;;;;16.87;4.40;;;;;;;-145.18;100.00;60484.78;4956424;28;20468;-89
2023/03/31 03:35:09;;;;;;;12.87;4.70;;;;;;;-145.18;100.00;60484.78;4964923;28;20127;-88
2023/03/31 03:37:35;;;;;;;17.70;5.10;;;;;;;-145.18;100.00;60484.78;4955391;28;20031;-89
2023/03/31 03:40:01;;;;;;;13.47;4.90;;;;;;;-145.18;100.00;60484.78;4949136;28;20038;-89
2023/03/31 03:42:26;;;;;;;12.13;4.83;;;;;;;-145.18;100.00;60484.78;4974778;28;20030;-89
2023/03/31 03:44:52;;;;;;;15.27;5.00;;;;;;;-145.18;100.00;60484.78;4974694;28;20491;-88
2023/03/31 03:47:17;;;;;;;15.57;5.40;;;;;;;-145.18;100.00;60484.78;4993061;28;20034;-88
2023/03/31 03:49:43;;;;;;;16.60;5.77;;;;;;;-145.18;100.00;60484.78;4994224;28;20026;-89
2023/03/31 03:52:08;;;;;;;18.67;5.23;;;;;;;-145.18;100.00;60484.78;5030410;28;20020;-88
2023/03/31 03:54:34;;;;;;;18.70;5.10;;;;;;;-145.18;100.00;60484.78;5055202;28;20469;-89
2023/03/31 03:57:00;;;;;;;16.83;6.10;;;;;;;-145.18;100.00;60484.78;5054962;28;20075;-88
2023/03/31 03:59:25;;;;;;;16.20;5.90;;;;;;;-145.18;100.00;60484.78;5037618;28;20033;-89
2023/03/31 04:01:51;;;;;;;14.77;5.30;;;;;;;-145.18;100.00;60484.78;5055353;28;20493;-88
2023/03/31 04:04:17;;;;;;;17.47;5.63;;;;;;;-145.18;100.00;60484.78;5057143;28;20032;-89
2023/03/31 04:06:42;;;;;;;23.83;6.00;;;;;;;-145.18;100.00;60484.78;5054918;28;20024;-89
2023/03/31 04:09:08;;;;;;;15.77;6.40;;;;;;;-145.18;100.00;60484.78;5035538;28;20032;-89
2023/03/31 04:11:34;;;;;;;19.63;6.60;;;;;;;-145.18;100.00;60484.78;5054996;28;20389;-89
2023/03/31 04:13:59;;;;;;;20.00;6.30;;;;;;;-145.18;100.00;60484.78;5055171;28;20074;-89
2023/03/31 04:16:25;;;;;;;16.77;5.90;;;;;;;-145.18;100.00;60484.78;5055051;28;20029;-89
2023/03/31 04:18:55;;;;;;;19.97;7.10;;;;;;;-145.18;100.00;60484.78;5036939;28;20063;-89
2023/03/31 04:21:21;;;;;;;18.60;6.83;;;;;;;-145.18;100.00;60484.78;5053892;28;20060;-88
2023/03/31 04:23:49;;;;;;;18.63;6.83;;;;;;;-145.18;100.00;60484.78;5054699;28;20432;-89
2023/03/31 04:26:17;;;;;;;22.07;7.50;;;;;;;-145.18;100.00;60484.78;5036557;28;20481;-89
2023/03/31 04:28:45;;;;;;;19.87;7.67;;;;;;;-145.18;100.00;60484.78;5053048;28;20155;-89
2023/03/31 04:31:15;;;;;;;19.00;8.47;;;;;;;-145.18;100.00;60484.78;5044835;28;20032;-89
2023/03/31 04:33:44;;;;;;;21.47;8.57;;;;;;;-145.18;100.00;60484.78;5036001;28;20115;-89
2023/03/31 04:36:16;;;;;;;21.53;8.13;;;;;;;-145.18;100.00;60484.78;5053603;28;20028;-89
2023/03/31 04:38:45;;;;;;;20.38;10.05;;;;;;;-145.18;100.00;60484.78;5027063;28;20485;-90
2023/03/31 04:41:14;;;;;;;19.83;9.23;;;;;;;-145.18;100.00;60484.78;5048622;28;20033;-90
2023/03/31 04:43:40;;;;;;;22.33;9.87;;;;;;;-145.18;100.00;60484.78;5054742;28;20029;-89
2023/03/31 04:46:05;;;;;;;25.00;9.93;;;;;;;-145.18;100.00;60484.78;5054089;28;20035;-90
2023/03/31 04:48:31;;;;;;;24.23;11.20;;;;;;;-145.18;100.00;60484.78;5054408;28;20065;-91
2023/03/31 04:50:56;;;;;;;31.80;11.30;;;;;;;-145.18;100.00;60484.78;5037875;28;20021;-91
2023/03/31 04:53:22;;;;;;;27.13;11.23;;;;;;;-145.18;100.00;60484.78;5055246;28;20027;-89
2023/03/31 04:55:49;;;;;;;26.33;10.67;;;;;;;-145.18;100.00;60484.78;5043381;28;20527;-89
2023/03/31 04:58:15;;;;;;;24.43;11.00;;;;;;;-145.18;100.00;60484.78;5046533;28;20021;-89
2023/03/31 05:00:40;;;;;;;27.83;12.63;;;;;;;-145.18;100.00;60484.78;5054119;28;20361;-89
2023/03/31 05:03:07;;;;;;;26.90;11.53;;;;;;;-145.18;100.00;60484.78;5053645;28;20025;-89
2023/03/31 05:05:32;;;;;;;26.67;11.57;;;;;;;-145.18;100.00;60484.78;5050656;28;20021;-89
2023/03/31 05:07:58;;;;;;;27.60;12.17;;;;;;;-145.18;100.00;60484.78;5046058;28;20016;-89
2023/03/31 05:10:23;;;;;;;28.73;11.37;;;;;;;-145.18;100.00;60484.78;5053373;28;20037;-88
2023/03/31 05:12:49;;;;;;;26.97;11.50;;;;;;;-145.18;100.00;60484.78;5050101;28;20036;-90
2023/03/31 05:15:15;;;;;;;26.20;10.67;;;;;;;-145.18;100.00;60484.78;5036615;28;20120;-90
2023/03/31 05:17:40;;;;;;;25.40;10.03;;;;;;;-145.18;100.00;60484.78;5053995;28;20481;-89
2023/03/31 05:20:08;;;;;;;24.57;11.17;;;;;;;-145.18;100.00;60484.78;5053134;28;20533;-89
2023/03/31 05:22:35;;;;;;;25.23;11.03;;;;;;;-145.18;100.00;60484.78;5054206;28;20028;-89
2023/03/31 05:25:01;;;;;;;28.13;11.03;;;;;;;-145.18;100.00;60484.78;5054321;28;20078;-90
2023/03/31 05:27:26;;;;;;;27.00;11.00;;;;;;;-145.18;100.00;60484.78;5054167;28;20025;-90
2023/03/31 05:29:52;;;;;;;31.93;12.17;;;;;;;-145.18;100.00;60484.78;5042049;28;20033;-90
2023/03/31 05:32:17;;;;;;;28.37;10.63;;;;;;;-145.18;100.00;60484.78;5016490;28;20083;-89
2023/03/31 05:34:43;;;;;;;25.40;10.27;;;;;;;-145.18;100.00;60484.78;5017301;28;20477;-90
2023/03/31 05:37:08;;;;;;;24.40;10.20;;;;;;;-145.18;100.00;60484.78;5053895;28;20112;-89
2023/03/31 05:39:34;;;;;;;29.47;10.67;;;;;;;-145.18;100.00;60484.78;5034705;28;20519;-90
2023/03/31 05:42:00;;;;;;;26.83;10.33;;;;;;;-145.18;100.00;60484.78;5053791;28;20401;-91
2023/03/31 05:44:26;;;;;;;28.43;10.57;;;;;;;-145.18;100.00;60484.78;5054284;28;20101;-90
2023/03/31 05:46:52;;;;;;;29.20;11.10;;;;;;;-145.18;100.00;60484.78;5054076;28;20493;-89
2023/03/31 05:49:18;;;;;;;29.07;10.93;;;;;;;-145.18;100.00;60484.78;5057731;28;20082;-89
2023/03/31 05:51:44;;;;;;;25.23;10.67;;;;;;;-145.18;100.00;60484.78;5058555;28;20025;-90
2023/03/31 05:54:10;;;;;;;27.77;11.63;;;;;;;-145.18;100.00;60484.78;5057821;28;20056;-89
2023/03/31 05:56:35;;;;;;;25.87;10.13;;;;;;;-145.18;100.00;60484.78;5057126;28;20049;-89
2023/03/31 05:59:01;;;;;;;30.80;12.67;;;;;;;-145.18;100.00;60484.78;5057089;28;20079;-89
2023/03/31 06:01:28;;;;;;;30.03;13.33;;;;;;;-145.18;100.00;60484.78;5057641;28;20025;-89
2023/03/31 06:03:54;;;;;;;33.83;14.87;;;;;;;-145.18;100.00;60484.78;5049449;28;20471;-89
2023/03/31 06:06:20;;;;;;;32.17;14.53;;;;;;;-145.18;100.00;60484.78;5057232;28;20056;-89
2023/03/31 06:08:46;;;;;;;32.33;14.90;;;;;;;-145.18;100.00;60484.78;5057692;28;20493;-90
2023/03/31 06:11:15;;;;;;;34.30;15.83;;;;;;;-145.18;100.00;60484.78;5057185;28;20037;-90
2023/03/31 06:13:41;;;;;;;34.13;15.70;;;;;;;-145.18;100.00;60484.78;5057347;28;20048;-90
2023/03/31 06:16:10;;;;;;;28.57;14.60;;;;;;;-145.18;100.00;60484.78;5057075;28;20015;-90
2023/03/31 06:18:35;;;;;;;31.90;15.73;;;;;;;-145.18;100.00;60484.78;5057410;28;20064;-90
2023/03/31 06:21:02;;;;;;;31.47;15.33;;;;;;;-145.18;100.00;60484.78;5056709;28;20033;-90
2023/03/31 06:23:27;;;;;;;30.63;15.37;;;;;;;-145.18;100.00;60484.78;5038171;28;20051;-89
2023/03/31 06:25:53;;;;;;;32.97;15.60;;;;;;;-145.18;100.00;60484.78;5056875;28;20025;-89
2023/03/31 06:28:20;;;;;;;36.17;16.30;;;;;;;-145.18;100.00;60484.78;5056618;28;20047;-89
2023/03/31 06:30:45;;;;;;;28.57;13.97;;;;;;;-145.18;100.00;60484.78;5056701;28;20029;-90
2023/03/31 06:33:12;;;;;;;33.27;13.37;;;;;;;-145.18;100.00;60484.78;5056606;28;20025;-90
2023/03/31 06:35:38;;;;;;;33.07;14.63;;;;;;;-145.18;100.00;60484.78;5057268;28;20040;-90
2023/03/31 06:38:04;;;;;;;32.07;14.00;;;;;;;-145.18;100.00;60484.78;5035774;28;20032;-90
2023/03/31 06:40:29;;;;;;;28.80;12.57;;;;;;;-145.18;100.00;60484.78;5036728;28;20484;-89
2023/03/31 06:42:55;;;;;;;27.33;12.60;;;;;;;-145.18;100.00;60484.78;5019247;28;20036;-90
2023/03/31 06:45:21;;;;;;;33.53;12.63;;;;;;;-145.18;100.00;60484.78;5036993;28;20437;-88
2023/03/31 06:47:46;;;;;;;28.63;11.90;;;;;;;-145.18;100.00;60484.78;5036665;28;20060;-91
2023/03/31 06:50:12;;;;;;;26.03;12.63;;;;;;;-145.18;100.00;60484.78;5046934;28;20028;-90
2023/03/31 06:52:39;;;;;;;26.97;12.30;;;;;;;-145.18;100.00;60484.78;5056762;28;20033;-90
2023/03/31 06:55:06;;;;;;;25.13;12.90;;;;;;;-145.18;100.00;60484.78;5055516;28;20028;-91
2023/03/31 06:57:32;;;;;;;26.77;12.50;;;;;;;-145.18;100.00;60484.78;5056929;28;20024;-91
2023/03/31 06:59:58;;;;;;;23.10;11.90;;;;;;;-145.18;100.00;60484.78;5035395;28;20044;-90
2023/03/31 07:02:24;;;;;;;26.53;10.83;;;;;;;-145.18;100.00;60484.78;5043502;28;20428;-90
2023/03/31 07:04:50;;;;;;;26.87;12.47;;;;;;;-145.18;100.00;60484.78;5048208;28;20029;-90
2023/03/31 07:07:15;;;;;;;29.10;12.80;;;;;;;-145.18;100.00;60484.78;5038954;28;20024;-91
2023/03/31 07:09:41;;;;;;;23.93;11.70;;;;;;;-145.18;100.00;60484.78;5067892;22;20045;-66
2023/03/31 07:12:06;;;;;;;26.63;12.40;;;;;;;-145.18;100.00;60484.78;5047435;28;20062;-66
2023/03/31 07:14:32;;;;;;;29.50;12.73;;;;;;;-145.18;100.00;60484.78;5034745;28;20082;-66
2023/03/31 07:16:58;;;;;;;19.33;9.57;;;;;;;-145.18;100.00;60484.78;5034019;28;20044;-66
2023/03/31 07:19:23;;;;;;;29.20;12.47;;;;;;;-145.18;100.00;60484.78;5034159;28;20053;-66
2023/03/31 07:21:50;;;;;;;27.47;11.87;;;;;;;-145.18;100.00;60484.78;5034073;28;20029;-66
2023/03/31 07:24:16;;;;;;;22.27;10.10;;;;;;;-145.18;100.00;60484.78;5034052;28;20107;-66
2023/03/31 07:26:42;;;;;;;27.27;11.17;;;;;;;-145.18;100.00;60484.78;5034098;28;20448;-65
2023/03/31 07:29:07;;;;;;;23.33;11.33;;;;;;;-145.18;100.00;60484.78;5048594;28;20037;-66
2023/03/31 07:31:33;;;;;;;22.40;11.23;;;;;;;-145.18;100.00;60484.78;5053896;28;20036;-66
2023/03/31 07:33:59;;;;;;;26.23;11.37;;;;;;;-145.18;100.00;60484.78;5053885;28;20043;-66
2023/03/31 07:36:25;;;;;;;21.07;10.40;;;;;;;-145.18;100.00;60484.78;5053779;28;20029;-66
2023/03/31 07:38:50;;;;;;;18.10;9.60;;;;;;;-145.18;100.00;60484.78;5053498;28;20043;-66
2023/03/31 07:41:20;;;;;;;21.50;9.77;;;;;;;-145.18;100.00;60484.78;5053691;28;20086;-66
2023/03/31 07:43:46;;;;;;;20.83;9.50;;;;;;;-145.18;100.00;60484.78;5053564;28;20083;-66
2023/03/31 07:46:17;;;;;;;18.43;9.10;;;;;;;-145.18;100.00;60484.78;5049451;28;20128;-66
2023/03/31 07:48:45;;;;;;;17.52;9.00;;;;;;;-145.18;100.00;60484.78;5053916;28;20025;-66
2023/03/31 07:51:10;;;;;;;14.33;8.60;;;;;;;-145.18;100.00;60484.78;5053601;28;20554;-66
2023/03/31 07:53:36;;;;;;;13.80;7.00;;;;;;;-145.18;100.00;60484.78;5053539;28;20033;-65
2023/03/31 07:56:01;;;;;;;17.20;8.80;;;;;;;-145.18;100.00;60484.78;5053294;28;20496;-65
2023/03/31 07:58:27;;;;;;;16.93;8.23;;;;;;;-145.18;100.00;60484.78;5053296;28;20108;-66
2023/03/31 08:00:53;;;;;;;20.57;8.77;;;;;;;-145.18;100.00;60484.78;5053181;28;20493;-65
2023/03/31 08:03:19;;;;;;;18.03;7.53;;;;;;;-145.18;100.00;60484.78;5051005;28;20029;-65
2023/03/31 08:05:44;;;;;;;18.63;8.30;;;;;;;-145.18;100.00;60484.78;5051956;28;20141;-65
2023/03/31 08:08:10;;;;;;;16.27;8.07;;;;;;;-145.18;100.00;60484.78;5053098;28;20029;-65
2023/03/31 08:10:35;;;;;;;15.83;7.50;;;;;;;-145.18;100.00;60484.78;5052454;28;20499;-65
2023/03/31 08:13:00;;;;;;;15.13;8.37;;;;;;;-145.18;100.00;60484.78;5052941;28;20021;-65
2023/03/31 08:15:26;;;;;;;15.57;7.50;;;;;;;-145.18;100.00;60484.78;5052971;28;20027;-65
2023/03/31 08:17:52;;;;;;;15.20;7.27;;;;;;;-145.18;100.00;60484.78;5052766;28;20028;-66
2023/03/31 08:20:17;;;;;;;16.47;7.50;;;;;;;-145.18;100.00;60484.78;5052422;28;20037;-65
2023/03/31 08:22:43;;;;;;;11.03;6.23;;;;;;;-145.18;100.00;60484.78;5066851;28;20546;-65
2023/03/31 08:25:09;;;;;;;18.47;7.90;;;;;;;-145.18;100.00;60484.78;5052849;28;20035;-66
2023/03/31 08:27:37;;;;;;;18.83;8.03;;;;;;;-145.18;100.00;60484.78;5053007;28;20448;-67
2023/03/31 08:30:04;;;;;;;13.57;7.03;;;;;;;-145.18;100.00;60484.78;5052558;28;20029;-66
2023/03/31 08:32:31;;;;;;;19.77;7.13;;;;;;;-145.18;100.00;60484.78;5052788;28;20029;-66
2023/03/31 08:34:56;;;;;;;15.50;6.00;;;;;;;-145.18;100.00;60484.78;5052713;28;20447;-65
2023/03/31 08:37:23;;;;;;;18.73;6.43;;;;;;;-145.18;100.00;60484.78;5051929;28;20104;-65
2023/03/31 08:39:48;;;;;;;11.00;4.10;;;;;;;-145.18;100.00;60484.78;5052538;28;20546;-65
2023/03/31 08:42:19;;;;;;;13.23;5.37;;;;;;;-145.18;100.00;60484.78;5052403;28;20033;-65
2023/03/31 08:45:06;;;;;;;18.23;5.57;;;;;;;-145.18;100.00;60484.78;5052374;28;20025;-67
2023/03/31 08:47:35;;;;;;;14.40;4.73;;;;;;;-145.18;100.00;60484.78;5039896;28;20497;-65
2023/03/31 08:50:16;;;;;;;10.53;4.43;;;;;;;-145.18;100.00;60484.78;5032330;28;20048;-66
2023/03/31 08:52:49;;;;;;;11.37;4.60;;;;;;;-145.18;100.00;60484.78;5046960;28;20038;-65
2023/03/31 08:55:25;;;;;;;11.77;4.33;;;;;;;-145.18;100.00;60484.78;5052313;28;20064;-65
2023/03/31 08:58:08;;;;;;;15.57;4.57;;;;;;;-145.18;100.00;60484.78;5052352;28;20029;-65
2023/03/31 09:01:04;;;;;;;7.53;3.67;;;;;;;-145.18;100.00;60484.78;5052189;28;20029;-66
2023/03/31 09:03:52;;;;;;;9.93;4.07;;;;;;;-145.18;100.00;60484.78;4989527;28;20114;-66
2023/03/31 09:06:30;;;;;;;9.97;3.30;;;;;;;-145.18;100.00;60484.78;4972602;28;20030;-66
2023/03/31 09:09:00;;;;;;;7.20;3.10;;;;;;;-145.18;100.00;60484.78;4971331;28;20496;-66
2023/03/31 09:11:54;;;;;;;10.87;3.93;;;;;;;-145.18;100.00;60484.78;4971587;28;20038;-66
2023/03/31 09:14:36;;;;;;;9.60;3.03;;;;;;;-145.18;100.00;60484.78;4984003;28;20038;-66
2023/03/31 09:17:28;;;;;;;11.33;3.43;;;;;;;-145.18;100.00;60484.78;4990734;28;20773;-66
2023/03/31 09:20:04;;;;;;;9.60;3.80;;;;;;;-145.18;100.00;60484.78;4990595;28;20042;-65
2023/03/31 09:22:37;;;;;;;9.13;3.20;;;;;;;-145.18;100.00;60484.78;4992705;28;20478;-66
2023/03/31 09:25:34;;;;;;;9.60;2.57;;;;;;;-145.18;100.00;60484.78;4994687;28;20113;-66
2023/03/31 09:28:03;;;;;;;8.63;2.90;;;;;;;-145.18;100.00;60484.78;4980802;28;20074;-65
2023/03/31 09:30:32;;;;;;;7.70;2.43;;;;;;;-145.18;100.00;60484.78;4975079;28;20034;-65
2023/03/31 09:33:32;;;;;;;7.63;2.73;;;;;;;-145.18;100.00;60484.78;4975097;28;20042;-65
2023/03/31 09:36:01;;;;;;;7.33;2.57;;;;;;;-145.18;100.00;60484.78;4975172;28;20039;-64
2023/03/31 09:38:28;;;;;;;9.60;2.33;;;;;;;-145.18;100.00;60484.78;4975144;28;20038;-64
2023/03/31 09:40:59;;;;;;;7.57;2.20;;;;;;;-145.18;100.00;60484.78;5017559;28;20409;-64
2023/03/31 09:43:30;;;;;;;5.70;2.35;;;;;;;-145.18;100.00;60484.78;5036200;28;20026;-64
2023/03/31 09:45:58;;;;;;;6.93;2.38;;;;;;;-145.18;100.00;60484.78;5055900;28;20029;-64
2023/03/31 09:48:32;;;;;;;8.10;2.50;;;;;;;-145.18;100.00;60484.78;5055576;28;20033;-64
2023/03/31 09:51:01;;;;;;;6.60;2.40;;;;;;;-145.18;100.00;60484.78;5055868;28;20397;-65
2023/03/31 09:53:46;;;;;;;8.37;3.27;;;;;;;-145.18;100.00;60484.78;5050321;28;20048;-65
2023/03/31 09:56:12;;;;;;;7.07;2.80;;;;;;;-145.18;100.00;60484.78;5035820;28;20537;-65
2023/03/31 09:58:43;;;;;;;7.20;2.60;;;;;;;-145.18;100.00;60484.78;5035815;28;20481;-65
2023/03/31 10:01:11;;;;;;;5.70;2.50;;;;;;;-145.18;100.00;60484.78;5043173;28;20029;-65
2023/03/31 10:03:52;;;;;;;8.17;2.20;;;;;;;-145.18;100.00;60484.78;5053938;28;20037;-65
2023/03/31 10:06:19;;;;;;;5.97;2.70;;;;;;;-145.18;100.00;60484.78;5055622;28;20542;-62
2023/03/31 10:08:55;;;;;;;5.13;2.30;;;;;;;-145.18;100.00;60484.78;5055458;28;20036;-62
2023/03/31 10:11:21;;;;;;;6.23;2.53;;;;;;;-145.18;100.00;60484.78;5055198;28;20064;-64
2023/03/31 10:14:08;;;;;;;5.38;2.50;;;;;;;-145.18;100.00;60484.78;5055573;28;20528;-63
2023/03/31 10:16:48;;;;;;;6.10;2.10;;;;;;;-145.18;100.00;60484.78;5055264;28;20060;-63
2023/03/31 10:19:46;;;;;;;3.95;1.95;;;;;;;-145.18;100.00;60484.78;5054220;28;20021;-64
2023/03/31 10:22:26;;;;;;;3.40;1.80;;;;;;;-145.18;100.00;60484.78;4993432;28;20049;-63
2023/03/31 10:24:52;;;;;;;4.85;1.60;;;;;;;-145.18;100.00;60484.78;4993663;28;20053;-63
2023/03/31 10:27:29;;;;;;;3.53;1.45;;;;;;;-145.18;100.00;60484.78;4993604;28;20401;-63
2023/03/31 10:29:57;;;;;;;4.90;1.70;;;;;;;-145.18;100.00;60484.78;4993356;28;20122;-63
2023/03/31 10:32:37;;;;;;;3.55;1.40;;;;;;;-145.18;100.00;60484.78;4992856;28;20044;-63
2023/03/31 10:35:29;;;;;;;2.28;1.35;;;;;;;-145.18;100.00;60484.78;4970496;28;20364;-63
2023/03/31 10:37:58;;;;;;;;;;;;;;;-145.18;100.00;60484.78;4935743;29;20126;-63
2023/03/31 10:40:26;;;;;;;2.13;1.15;;;;;;;-145.18;100.00;60484.78;4935319;29;20299;-63
2023/03/31 10:43:03;;;;;;;4.60;1.70;;;;;;;-145.18;100.00;60484.78;4935377;29;20046;-63
2023/03/31 10:45:35;;;;;;;3.42;1.40;;;;;;;-145.18;100.00;60484.78;4935170;29;20046;-64
2023/03/31 10:48:00;;;;;;;2.75;1.30;;;;;;;-145.18;100.00;60484.78;4901167;29;20035;-64
2023/03/31 10:50:33;;;;;;;2.30;1.10;;;;;;;-145.18;100.00;60484.78;4916105;29;20497;-63
2023/03/31 10:53:19;;;;;;;3.53;1.30;;;;;;;-145.18;100.00;60484.78;4916629;29;20497;-63
2023/03/31 10:56:02;;;;;;;4.77;1.53;;;;;;;-145.18;100.00;60484.78;4915976;29;20044;-64
2023/03/31 10:58:56;;;;;;;3.67;1.30;;;;;;;-145.18;100.00;60484.78;4934933;28;20446;-64
2023/03/31 11:02:10;;;;;;;3.87;1.30;;;;;;;-145.18;100.00;60484.78;4984081;28;20099;-64
2023/03/31 11:05:31;;;;;;;3.35;1.20;;;;;;;-145.18;100.00;60484.78;4940609;28;20112;-65
2023/03/31 11:08:47;;;;;;;2.42;1.05;;;;;;;-145.18;100.00;60484.78;4973379;28;20122;-65
2023/03/31 11:11:30;;;;;;;3.55;1.10;;;;;;;-145.18;100.00;60484.78;4971496;28;20129;-64
2023/03/31 11:14:06;;;;;;;2.63;0.90;;;;;;;-145.18;100.00;60484.78;4975769;28;20038;-64
2023/03/31 11:17:14;;;;;;;4.43;1.17;;;;;;;-145.18;100.00;60484.78;5012486;28;20494;-65
2023/03/31 11:20:01;;;;;;;3.13;1.30;;;;;;;-145.18;100.00;60484.78;5004293;28;20076;-64
2023/03/31 11:23:05;;;;;;;2.53;1.00;;;;;;;-145.18;100.00;60484.78;5012084;28;20049;-64
2023/03/31 11:25:46;;;;;;;2.40;1.05;;;;;;;-145.18;100.00;60484.78;4952876;29;20049;-64
2023/03/31 11:29:03;;;;;;;1.23;0.80;;;;;;;-145.18;100.00;60484.78;4953639;28;20043;-64
2023/03/31 11:32:08;;;;;;;4.47;1.10;;;;;;;-145.18;100.00;60484.78;4915457;29;20453;-65